Terminal Aerodrome Forecast
Issued by NWS Louisville, KY

Home | Current Version | Previous Version | Text Only | Print | Product List | Glossary On
Versions: 1 2 3 4 5 6 7 8 9 10 11 12 13 14 15
000
FTUS43 KLMK 271121
TAFBWG
TAF
KBWG 271121Z 2712/2812 00000KT 5SM BR SCT250
     FM271300 22005KT P6SM SCT050 SCT250
     FM271900 20005KT P6SM VCTS SCT050CB SCT250
     FM272300 VRB03KT P6SM SCT250=

USA.gov is the U.S. government's official web portal to all federal, state and local government web resources and services.